sensor_id;sensor_type;location;lat;lon;timestamp;P1;durP1;ratioP1;P2;durP2;ratioP2
65187;SDS011;51775;51.148;6.950;2023-02-22T00:02:15;1.42;;;1.10;;
65187;SDS011;51775;51.148;6.950;2023-02-22T00:04:40;1.70;;;1.00;;
65187;SDS011;51775;51.148;6.950;2023-02-22T00:07:06;1.65;;;1.00;;
65187;SDS011;51775;51.148;6.950;2023-02-22T00:09:31;1.60;;;1.10;;
65187;SDS011;51775;51.148;6.950;2023-02-22T00:11:56;1.77;;;1.00;;
65187;SDS011;51775;51.148;6.950;2023-02-22T00:14:22;1.50;;;0.90;;
65187;SDS011;51775;51.148;6.950;2023-02-22T00:16:47;1.23;;;0.90;;
65187;SDS011;51775;51.148;6.950;2023-02-22T00:19:12;1.77;;;1.00;;
65187;SDS011;51775;51.148;6.950;2023-02-22T00:21:38;1.63;;;0.90;;
65187;SDS011;51775;51.148;6.950;2023-02-22T00:24:03;1.55;;;1.00;;
65187;SDS011;51775;51.148;6.950;2023-02-22T00:26:28;1.55;;;1.00;;
65187;SDS011;51775;51.148;6.950;2023-02-22T00:28:57;1.20;;;0.90;;
65187;SDS011;51775;51.148;6.950;2023-02-22T00:31:22;1.92;;;1.10;;
65187;SDS011;51775;51.148;6.950;2023-02-22T00:33:48;1.33;;;1.00;;
65187;SDS011;51775;51.148;6.950;2023-02-22T00:36:13;1.40;;;0.90;;
65187;SDS011;51775;51.148;6.950;2023-02-22T00:38:39;1.67;;;0.90;;
65187;SDS011;51775;51.148;6.950;2023-02-22T00:41:05;1.23;;;0.88;;
65187;SDS011;51775;51.148;6.950;2023-02-22T00:43:31;1.13;;;0.80;;
65187;SDS011;51775;51.148;6.950;2023-02-22T00:45:56;1.00;;;0.80;;
65187;SDS011;51775;51.148;6.950;2023-02-22T00:48:22;1.27;;;0.90;;
65187;SDS011;51775;51.148;6.950;2023-02-22T00:50:47;1.42;;;0.90;;
65187;SDS011;51775;51.148;6.950;2023-02-22T00:53:12;1.40;;;0.88;;
65187;SDS011;51775;51.148;6.950;2023-02-22T00:55:38;1.13;;;0.80;;
65187;SDS011;51775;51.148;6.950;2023-02-22T00:58:04;1.17;;;0.80;;
65187;SDS011;51775;51.148;6.950;2023-02-22T01:00:33;1.08;;;0.70;;
65187;SDS011;51775;51.148;6.950;2023-02-22T01:02:59;1.00;;;0.70;;
65187;SDS011;51775;51.148;6.950;2023-02-22T01:05:25;1.30;;;0.90;;
65187;SDS011;51775;51.148;6.950;2023-02-22T01:07:53;1.35;;;0.90;;
65187;SDS011;51775;51.148;6.950;2023-02-22T01:10:19;0.80;;;0.70;;
65187;SDS011;51775;51.148;6.950;2023-02-22T01:12:46;1.00;;;0.70;;
65187;SDS011;51775;51.148;6.950;2023-02-22T01:15:12;0.82;;;0.70;;
65187;SDS011;51775;51.148;6.950;2023-02-22T01:17:39;0.95;;;0.80;;
65187;SDS011;51775;51.148;6.950;2023-02-22T01:20:06;0.80;;;0.68;;
65187;SDS011;51775;51.148;6.950;2023-02-22T01:22:33;1.10;;;0.80;;
65187;SDS011;51775;51.148;6.950;2023-02-22T01:24:58;1.20;;;0.80;;
65187;SDS011;51775;51.148;6.950;2023-02-22T01:27:23;1.00;;;0.70;;
65187;SDS011;51775;51.148;6.950;2023-02-22T01:29:49;1.20;;;0.80;;
65187;SDS011;51775;51.148;6.950;2023-02-22T01:32:14;0.98;;;0.70;;
65187;SDS011;51775;51.148;6.950;2023-02-22T01:34:39;1.33;;;0.73;;
65187;SDS011;51775;51.148;6.950;2023-02-22T01:37:05;1.25;;;0.80;;
65187;SDS011;51775;51.148;6.950;2023-02-22T01:39:30;0.90;;;0.70;;
65187;SDS011;51775;51.148;6.950;2023-02-22T01:41:55;1.30;;;0.90;;
65187;SDS011;51775;51.148;6.950;2023-02-22T01:44:33;0.98;;;0.68;;
65187;SDS011;51775;51.148;6.950;2023-02-22T01:47:01;1.13;;;0.70;;
65187;SDS011;51775;51.148;6.950;2023-02-22T01:49:38;1.15;;;0.80;;
65187;SDS011;51775;51.148;6.950;2023-02-22T01:52:08;1.00;;;0.70;;
65187;SDS011;51775;51.148;6.950;2023-02-22T01:54:43;1.05;;;0.90;;
65187;SDS011;51775;51.148;6.950;2023-02-22T02:00:06;1.70;;;1.30;;
65187;SDS011;51775;51.148;6.950;2023-02-22T02:02:38;1.50;;;1.10;;
65187;SDS011;51775;51.148;6.950;2023-02-22T02:05:07;1.50;;;1.15;;
65187;SDS011;51775;51.148;6.950;2023-02-22T02:07:34;1.80;;;1.10;;
65187;SDS011;51775;51.148;6.950;2023-02-22T02:10:03;1.40;;;1.10;;
65187;SDS011;51775;51.148;6.950;2023-02-22T02:12:32;1.60;;;1.08;;
65187;SDS011;51775;51.148;6.950;2023-02-22T02:17:52;1.67;;;1.13;;
65187;SDS011;51775;51.148;6.950;2023-02-22T02:20:24;1.48;;;1.02;;
65187;SDS011;51775;51.148;6.950;2023-02-22T02:36:15;1.25;;;1.00;;
65187;SDS011;51775;51.148;6.950;2023-02-22T02:38:46;1.48;;;1.10;;
65187;SDS011;51775;51.148;6.950;2023-02-22T02:41:26;1.27;;;1.07;;
65187;SDS011;51775;51.148;6.950;2023-02-22T02:44:04;1.52;;;1.08;;
65187;SDS011;51775;51.148;6.950;2023-02-22T02:46:50;1.20;;;0.90;;
65187;SDS011;51775;51.148;6.950;2023-02-22T02:49:24;1.38;;;0.95;;
65187;SDS011;51775;51.148;6.950;2023-02-22T02:51:54;1.60;;;1.10;;
65187;SDS011;51775;51.148;6.950;2023-02-22T02:54:20;1.48;;;1.10;;
65187;SDS011;51775;51.148;6.950;2023-02-22T02:56:47;1.58;;;1.10;;
65187;SDS011;51775;51.148;6.950;2023-02-22T02:59:26;1.45;;;1.00;;
65187;SDS011;51775;51.148;6.950;2023-02-22T03:10:17;1.60;;;1.10;;
65187;SDS011;51775;51.148;6.950;2023-02-22T03:12:47;1.30;;;1.00;;
65187;SDS011;51775;51.148;6.950;2023-02-22T03:20:31;1.70;;;1.13;;
65187;SDS011;51775;51.148;6.950;2023-02-22T03:23:21;1.23;;;1.00;;
65187;SDS011;51775;51.148;6.950;2023-02-22T03:25:57;1.67;;;1.13;;
65187;SDS011;51775;51.148;6.950;2023-02-22T03:28:27;1.38;;;1.08;;
65187;SDS011;51775;51.148;6.950;2023-02-22T03:30:56;1.40;;;1.00;;
65187;SDS011;51775;51.148;6.950;2023-02-22T03:36:25;1.35;;;1.00;;
65187;SDS011;51775;51.148;6.950;2023-02-22T03:38:55;1.42;;;1.10;;
65187;SDS011;51775;51.148;6.950;2023-02-22T03:41:23;1.70;;;1.10;;
65187;SDS011;51775;51.148;6.950;2023-02-22T03:43:52;1.48;;;1.00;;
65187;SDS011;51775;51.148;6.950;2023-02-22T03:46:35;1.42;;;1.10;;
65187;SDS011;51775;51.148;6.950;2023-02-22T03:49:12;1.30;;;0.90;;
65187;SDS011;51775;51.148;6.950;2023-02-22T03:51:43;1.52;;;1.00;;
65187;SDS011;51775;51.148;6.950;2023-02-22T03:54:09;1.40;;;1.00;;
65187;SDS011;51775;51.148;6.950;2023-02-22T03:56:36;1.50;;;1.10;;
65187;SDS011;51775;51.148;6.950;2023-02-22T03:59:08;1.55;;;1.00;;
65187;SDS011;51775;51.148;6.950;2023-02-22T04:01:34;1.67;;;1.20;;
65187;SDS011;51775;51.148;6.950;2023-02-22T04:04:00;1.60;;;1.00;;
65187;SDS011;51775;51.148;6.950;2023-02-22T04:06:26;1.63;;;1.10;;
65187;SDS011;51775;51.148;6.950;2023-02-22T04:08:52;1.42;;;1.10;;
65187;SDS011;51775;51.148;6.950;2023-02-22T04:11:17;1.45;;;1.02;;
65187;SDS011;51775;51.148;6.950;2023-02-22T04:13:42;1.45;;;1.05;;
65187;SDS011;51775;51.148;6.950;2023-02-22T04:16:08;1.63;;;1.10;;
65187;SDS011;51775;51.148;6.950;2023-02-22T04:18:33;1.60;;;1.20;;
65187;SDS011;51775;51.148;6.950;2023-02-22T04:20:58;1.67;;;1.10;;
65187;SDS011;51775;51.148;6.950;2023-02-22T04:23:24;1.95;;;1.25;;
65187;SDS011;51775;51.148;6.950;2023-02-22T04:25:49;1.67;;;1.20;;
65187;SDS011;51775;51.148;6.950;2023-02-22T04:28:14;1.60;;;1.20;;
65187;SDS011;51775;51.148;6.950;2023-02-22T04:30:40;1.42;;;1.00;;
65187;SDS011;51775;51.148;6.950;2023-02-22T04:33:05;1.38;;;1.00;;
65187;SDS011;51775;51.148;6.950;2023-02-22T04:35:30;1.60;;;1.20;;
65187;SDS011;51775;51.148;6.950;2023-02-22T04:37:55;1.73;;;1.10;;
65187;SDS011;51775;51.148;6.950;2023-02-22T04:40:21;1.40;;;1.00;;
65187;SDS011;51775;51.148;6.950;2023-02-22T04:42:46;1.83;;;1.15;;
65187;SDS011;51775;51.148;6.950;2023-02-22T04:45:11;1.55;;;1.02;;
65187;SDS011;51775;51.148;6.950;2023-02-22T04:47:37;1.80;;;1.20;;
65187;SDS011;51775;51.148;6.950;2023-02-22T04:50:05;1.58;;;1.10;;
65187;SDS011;51775;51.148;6.950;2023-02-22T04:52:33;1.70;;;1.17;;
65187;SDS011;51775;51.148;6.950;2023-02-22T04:54:58;1.58;;;1.10;;
65187;SDS011;51775;51.148;6.950;2023-02-22T04:57:23;1.27;;;1.00;;
65187;SDS011;51775;51.148;6.950;2023-02-22T04:59:49;1.40;;;1.10;;
65187;SDS011;51775;51.148;6.950;2023-02-22T05:02:14;1.40;;;1.05;;
65187;SDS011;51775;51.148;6.950;2023-02-22T05:04:39;1.98;;;1.40;;
65187;SDS011;51775;51.148;6.950;2023-02-22T05:07:05;1.45;;;1.10;;
65187;SDS011;51775;51.148;6.950;2023-02-22T05:09:30;1.65;;;1.13;;
65187;SDS011;51775;51.148;6.950;2023-02-22T05:11:55;1.92;;;1.20;;
65187;SDS011;51775;51.148;6.950;2023-02-22T05:14:20;2.00;;;1.20;;
65187;SDS011;51775;51.148;6.950;2023-02-22T05:16:47;1.75;;;1.10;;
65187;SDS011;51775;51.148;6.950;2023-02-22T05:19:13;2.03;;;1.30;;
65187;SDS011;51775;51.148;6.950;2023-02-22T05:21:38;1.80;;;1.20;;
65187;SDS011;51775;51.148;6.950;2023-02-22T05:24:03;1.60;;;1.00;;
65187;SDS011;51775;51.148;6.950;2023-02-22T05:26:29;1.67;;;1.05;;
65187;SDS011;51775;51.148;6.950;2023-02-22T05:28:54;1.73;;;1.30;;
65187;SDS011;51775;51.148;6.950;2023-02-22T05:31:19;1.75;;;1.20;;
65187;SDS011;51775;51.148;6.950;2023-02-22T05:33:44;1.50;;;1.10;;
65187;SDS011;51775;51.148;6.950;2023-02-22T05:36:10;1.40;;;1.00;;
65187;SDS011;51775;51.148;6.950;2023-02-22T05:38:35;1.88;;;1.20;;
65187;SDS011;51775;51.148;6.950;2023-02-22T05:41:01;1.77;;;1.30;;
65187;SDS011;51775;51.148;6.950;2023-02-22T05:43:26;1.63;;;1.20;;
65187;SDS011;51775;51.148;6.950;2023-02-22T05:45:51;1.80;;;1.30;;
65187;SDS011;51775;51.148;6.950;2023-02-22T05:48:17;1.67;;;1.10;;
65187;SDS011;51775;51.148;6.950;2023-02-22T05:50:42;2.40;;;1.40;;
65187;SDS011;51775;51.148;6.950;2023-02-22T05:53:07;1.90;;;1.30;;
65187;SDS011;51775;51.148;6.950;2023-02-22T05:55:32;1.80;;;1.15;;
65187;SDS011;51775;51.148;6.950;2023-02-22T05:57:58;1.80;;;1.20;;
65187;SDS011;51775;51.148;6.950;2023-02-22T06:00:28;2.05;;;1.35;;
65187;SDS011;51775;51.148;6.950;2023-02-22T06:03:01;1.85;;;1.25;;
65187;SDS011;51775;51.148;6.950;2023-02-22T06:05:29;1.85;;;1.20;;
65187;SDS011;51775;51.148;6.950;2023-02-22T06:07:55;2.20;;;1.30;;
65187;SDS011;51775;51.148;6.950;2023-02-22T06:10:21;2.30;;;1.45;;
65187;SDS011;51775;51.148;6.950;2023-02-22T06:12:47;2.10;;;1.30;;
65187;SDS011;51775;51.148;6.950;2023-02-22T06:15:14;1.98;;;1.40;;
65187;SDS011;51775;51.148;6.950;2023-02-22T06:17:40;2.30;;;1.50;;
65187;SDS011;51775;51.148;6.950;2023-02-22T06:20:05;2.30;;;1.30;;
65187;SDS011;51775;51.148;6.950;2023-02-22T06:22:31;2.10;;;1.33;;
65187;SDS011;51775;51.148;6.950;2023-02-22T06:24:57;2.38;;;1.38;;
65187;SDS011;51775;51.148;6.950;2023-02-22T06:27:22;1.85;;;1.20;;
65187;SDS011;51775;51.148;6.950;2023-02-22T06:29:47;1.80;;;1.30;;
65187;SDS011;51775;51.148;6.950;2023-02-22T06:32:13;2.20;;;1.30;;
65187;SDS011;51775;51.148;6.950;2023-02-22T06:34:38;1.92;;;1.17;;
65187;SDS011;51775;51.148;6.950;2023-02-22T06:37:04;1.95;;;1.35;;
65187;SDS011;51775;51.148;6.950;2023-02-22T06:39:29;2.10;;;1.30;;
65187;SDS011;51775;51.148;6.950;2023-02-22T06:41:54;2.13;;;1.33;;
65187;SDS011;51775;51.148;6.950;2023-02-22T06:44:19;1.92;;;1.40;;
65187;SDS011;51775;51.148;6.950;2023-02-22T06:46:48;1.85;;;1.30;;
65187;SDS011;51775;51.148;6.950;2023-02-22T06:49:14;2.03;;;1.30;;
65187;SDS011;51775;51.148;6.950;2023-02-22T06:51:39;2.05;;;1.33;;
65187;SDS011;51775;51.148;6.950;2023-02-22T06:54:05;1.73;;;1.30;;
65187;SDS011;51775;51.148;6.950;2023-02-22T06:56:30;1.90;;;1.20;;
65187;SDS011;51775;51.148;6.950;2023-02-22T06:58:55;2.08;;;1.27;;
65187;SDS011;51775;51.148;6.950;2023-02-22T07:01:20;2.10;;;1.35;;
65187;SDS011;51775;51.148;6.950;2023-02-22T07:03:47;1.80;;;1.20;;
65187;SDS011;51775;51.148;6.950;2023-02-22T07:06:13;2.17;;;1.38;;
65187;SDS011;51775;51.148;6.950;2023-02-22T07:08:38;2.10;;;1.20;;
65187;SDS011;51775;51.148;6.950;2023-02-22T07:11:04;1.83;;;1.13;;
65187;SDS011;51775;51.148;6.950;2023-02-22T07:13:29;2.67;;;1.20;;
65187;SDS011;51775;51.148;6.950;2023-02-22T07:15:55;2.58;;;1.25;;
65187;SDS011;51775;51.148;6.950;2023-02-22T07:18:20;2.08;;;1.20;;
65187;SDS011;51775;51.148;6.950;2023-02-22T07:20:46;2.60;;;1.20;;
65187;SDS011;51775;51.148;6.950;2023-02-22T07:23:14;2.58;;;1.23;;
65187;SDS011;51775;51.148;6.950;2023-02-22T07:25:40;1.95;;;1.17;;
65187;SDS011;51775;51.148;6.950;2023-02-22T07:28:06;2.10;;;1.20;;
65187;SDS011;51775;51.148;6.950;2023-02-22T07:30:32;2.22;;;1.23;;
65187;SDS011;51775;51.148;6.950;2023-02-22T07:33:02;2.08;;;1.40;;
65187;SDS011;51775;51.148;6.950;2023-02-22T07:35:30;2.45;;;1.20;;
65187;SDS011;51775;51.148;6.950;2023-02-22T07:37:56;2.20;;;1.30;;
65187;SDS011;51775;51.148;6.950;2023-02-22T07:40:22;2.28;;;1.38;;
65187;SDS011;51775;51.148;6.950;2023-02-22T07:45:28;3.00;;;1.70;;
65187;SDS011;51775;51.148;6.950;2023-02-22T07:47:59;3.20;;;1.90;;
65187;SDS011;51775;51.148;6.950;2023-02-22T07:50:26;2.85;;;1.70;;
65187;SDS011;51775;51.148;6.950;2023-02-22T07:52:53;3.20;;;2.05;;
65187;SDS011;51775;51.148;6.950;2023-02-22T07:55:21;3.35;;;2.00;;
65187;SDS011;51775;51.148;6.950;2023-02-22T07:57:51;3.53;;;2.30;;
65187;SDS011;51775;51.148;6.950;2023-02-22T08:02:54;2.55;;;1.75;;
65187;SDS011;51775;51.148;6.950;2023-02-22T08:05:20;3.13;;;2.03;;
65187;SDS011;51775;51.148;6.950;2023-02-22T08:07:47;3.15;;;2.05;;
65187;SDS011;51775;51.148;6.950;2023-02-22T08:10:13;3.97;;;2.10;;
65187;SDS011;51775;51.148;6.950;2023-02-22T08:12:39;2.78;;;2.00;;
65187;SDS011;51775;51.148;6.950;2023-02-22T08:15:04;2.30;;;1.60;;
65187;SDS011;51775;51.148;6.950;2023-02-22T08:17:32;2.90;;;2.00;;
65187;SDS011;51775;51.148;6.950;2023-02-22T08:19:57;3.75;;;2.03;;
65187;SDS011;51775;51.148;6.950;2023-02-22T08:22:22;2.80;;;1.88;;
65187;SDS011;51775;51.148;6.950;2023-02-22T08:24:48;3.22;;;2.10;;
65187;SDS011;51775;51.148;6.950;2023-02-22T08:27:13;3.55;;;2.20;;
65187;SDS011;51775;51.148;6.950;2023-02-22T08:29:38;3.83;;;2.03;;
65187;SDS011;51775;51.148;6.950;2023-02-22T08:32:04;3.17;;;2.00;;
65187;SDS011;51775;51.148;6.950;2023-02-22T08:34:29;2.85;;;1.90;;
65187;SDS011;51775;51.148;6.950;2023-02-22T08:36:54;3.53;;;2.00;;
65187;SDS011;51775;51.148;6.950;2023-02-22T08:39:20;3.08;;;2.00;;
65187;SDS011;51775;51.148;6.950;2023-02-22T08:41:46;3.03;;;2.00;;
65187;SDS011;51775;51.148;6.950;2023-02-22T08:44:11;3.60;;;2.13;;
65187;SDS011;51775;51.148;6.950;2023-02-22T08:46:37;3.05;;;2.20;;
65187;SDS011;51775;51.148;6.950;2023-02-22T08:49:02;3.40;;;2.20;;
65187;SDS011;51775;51.148;6.950;2023-02-22T08:51:27;3.42;;;2.20;;
65187;SDS011;51775;51.148;6.950;2023-02-22T08:53:53;3.22;;;2.20;;
65187;SDS011;51775;51.148;6.950;2023-02-22T08:56:18;4.05;;;2.40;;
65187;SDS011;51775;51.148;6.950;2023-02-22T08:58:44;3.75;;;2.35;;
65187;SDS011;51775;51.148;6.950;2023-02-22T09:01:13;3.88;;;2.33;;
65187;SDS011;51775;51.148;6.950;2023-02-22T09:03:39;4.90;;;2.58;;
65187;SDS011;51775;51.148;6.950;2023-02-22T09:06:04;3.50;;;2.40;;
65187;SDS011;51775;51.148;6.950;2023-02-22T09:08:29;3.47;;;2.38;;
65187;SDS011;51775;51.148;6.950;2023-02-22T09:10:55;4.00;;;2.30;;
65187;SDS011;51775;51.148;6.950;2023-02-22T09:13:20;3.60;;;2.20;;
65187;SDS011;51775;51.148;6.950;2023-02-22T09:15:46;4.60;;;2.53;;
65187;SDS011;51775;51.148;6.950;2023-02-22T09:18:12;6.22;;;2.63;;
65187;SDS011;51775;51.148;6.950;2023-02-22T09:20:38;4.05;;;2.60;;
65187;SDS011;51775;51.148;6.950;2023-02-22T09:23:04;4.13;;;2.60;;
65187;SDS011;51775;51.148;6.950;2023-02-22T09:25:31;4.63;;;2.75;;
65187;SDS011;51775;51.148;6.950;2023-02-22T09:27:56;4.15;;;2.70;;
65187;SDS011;51775;51.148;6.950;2023-02-22T09:30:23;4.93;;;2.75;;
65187;SDS011;51775;51.148;6.950;2023-02-22T09:32:50;5.07;;;2.70;;
65187;SDS011;51775;51.148;6.950;2023-02-22T09:35:16;3.60;;;2.42;;
65187;SDS011;51775;51.148;6.950;2023-02-22T09:37:41;3.65;;;2.42;;
65187;SDS011;51775;51.148;6.950;2023-02-22T09:40:08;4.40;;;2.60;;
65187;SDS011;51775;51.148;6.950;2023-02-22T09:42:40;4.10;;;2.63;;
65187;SDS011;51775;51.148;6.950;2023-02-22T09:45:19;4.35;;;2.80;;
65187;SDS011;51775;51.148;6.950;2023-02-22T09:48:00;4.05;;;2.60;;
65187;SDS011;51775;51.148;6.950;2023-02-22T09:50:31;4.25;;;2.67;;
65187;SDS011;51775;51.148;6.950;2023-02-22T09:53:02;4.70;;;2.80;;
65187;SDS011;51775;51.148;6.950;2023-02-22T09:57:57;4.25;;;2.50;;
65187;SDS011;51775;51.148;6.950;2023-02-22T10:00:27;4.00;;;2.60;;
65187;SDS011;51775;51.148;6.950;2023-02-22T10:05:41;4.75;;;2.58;;
65187;SDS011;51775;51.148;6.950;2023-02-22T10:08:12;4.43;;;2.67;;
65187;SDS011;51775;51.148;6.950;2023-02-22T10:10:41;4.50;;;2.78;;
65187;SDS011;51775;51.148;6.950;2023-02-22T10:15:44;3.72;;;2.50;;
65187;SDS011;51775;51.148;6.950;2023-02-22T10:26:26;5.22;;;2.90;;
65187;SDS011;51775;51.148;6.950;2023-02-22T10:28:59;4.15;;;2.60;;
65187;SDS011;51775;51.148;6.950;2023-02-22T10:31:26;5.35;;;2.78;;
65187;SDS011;51775;51.148;6.950;2023-02-22T10:34:02;4.72;;;2.70;;
65187;SDS011;51775;51.148;6.950;2023-02-22T10:36:31;4.97;;;2.53;;
65187;SDS011;51775;51.148;6.950;2023-02-22T10:39:02;4.07;;;2.30;;
65187;SDS011;51775;51.148;6.950;2023-02-22T10:41:44;3.70;;;2.38;;
65187;SDS011;51775;51.148;6.950;2023-02-22T10:44:15;3.50;;;2.40;;
65187;SDS011;51775;51.148;6.950;2023-02-22T10:46:40;5.10;;;2.63;;
65187;SDS011;51775;51.148;6.950;2023-02-22T10:49:07;4.03;;;2.50;;
65187;SDS011;51775;51.148;6.950;2023-02-22T10:51:36;3.83;;;2.47;;
65187;SDS011;51775;51.148;6.950;2023-02-22T10:54:24;4.50;;;2.40;;
65187;SDS011;51775;51.148;6.950;2023-02-22T10:56:52;3.55;;;2.17;;
65187;SDS011;51775;51.148;6.950;2023-02-22T10:59:31;4.65;;;2.15;;
65187;SDS011;51775;51.148;6.950;2023-02-22T11:02:07;3.38;;;2.25;;
65187;SDS011;51775;51.148;6.950;2023-02-22T11:04:46;3.30;;;2.28;;
65187;SDS011;51775;51.148;6.950;2023-02-22T11:07:23;3.92;;;2.10;;
65187;SDS011;51775;51.148;6.950;2023-02-22T11:09:56;3.33;;;2.10;;
65187;SDS011;51775;51.148;6.950;2023-02-22T11:12:30;3.50;;;2.00;;
65187;SDS011;51775;51.148;6.950;2023-02-22T11:17:43;3.55;;;2.10;;
65187;SDS011;51775;51.148;6.950;2023-02-22T11:20:20;3.25;;;2.10;;
65187;SDS011;51775;51.148;6.950;2023-02-22T11:22:56;3.75;;;2.28;;
65187;SDS011;51775;51.148;6.950;2023-02-22T11:25:24;3.42;;;2.25;;
65187;SDS011;51775;51.148;6.950;2023-02-22T11:27:52;3.83;;;2.20;;
65187;SDS011;51775;51.148;6.950;2023-02-22T11:43:41;9.40;;;1.77;;
65187;SDS011;51775;51.148;6.950;2023-02-22T11:46:12;2.28;;;1.30;;
65187;SDS011;51775;51.148;6.950;2023-02-22T12:06:04;3.63;;;1.90;;
65187;SDS011;51775;51.148;6.950;2023-02-22T12:08:49;3.03;;;2.00;;
65187;SDS011;51775;51.148;6.950;2023-02-22T12:11:23;3.28;;;1.92;;
65187;SDS011;51775;51.148;6.950;2023-02-22T12:14:20;3.95;;;1.80;;
65187;SDS011;51775;51.148;6.950;2023-02-22T12:17:03;3.42;;;1.70;;
65187;SDS011;51775;51.148;6.950;2023-02-22T12:19:40;2.88;;;1.80;;
65187;SDS011;51775;51.148;6.950;2023-02-22T12:22:09;2.83;;;1.52;;
65187;SDS011;51775;51.148;6.950;2023-02-22T12:24:47;3.33;;;1.70;;
65187;SDS011;51775;51.148;6.950;2023-02-22T12:27:19;3.88;;;1.90;;
65187;SDS011;51775;51.148;6.950;2023-02-22T12:30:03;3.80;;;1.63;;
65187;SDS011;51775;51.148;6.950;2023-02-22T12:32:41;3.58;;;1.63;;
65187;SDS011;51775;51.148;6.950;2023-02-22T12:35:15;2.97;;;1.83;;
65187;SDS011;51775;51.148;6.950;2023-02-22T12:41:12;3.58;;;1.70;;
65187;SDS011;51775;51.148;6.950;2023-02-22T12:43:34;2.97;;;1.77;;
65187;SDS011;51775;51.148;6.950;2023-02-22T12:48:40;3.30;;;1.98;;
65187;SDS011;51775;51.148;6.950;2023-02-22T12:57:07;3.38;;;1.95;;
65187;SDS011;51775;51.148;6.950;2023-02-22T12:59:44;3.22;;;1.80;;
65187;SDS011;51775;51.148;6.950;2023-02-22T13:04:56;2.67;;;1.50;;
65187;SDS011;51775;51.148;6.950;2023-02-22T13:10:26;3.22;;;1.85;;
65187;SDS011;51775;51.148;6.950;2023-02-22T13:15:57;2.97;;;1.90;;
65187;SDS011;51775;51.148;6.950;2023-02-22T13:18:35;3.70;;;1.92;;
65187;SDS011;51775;51.148;6.950;2023-02-22T13:30:27;3.75;;;2.10;;
65187;SDS011;51775;51.148;6.950;2023-02-22T13:36:01;3.90;;;2.05;;
65187;SDS011;51775;51.148;6.950;2023-02-22T13:38:56;6.70;;;2.05;;
65187;SDS011;51775;51.148;6.950;2023-02-22T13:49:51;3.38;;;1.63;;
65187;SDS011;51775;51.148;6.950;2023-02-22T13:52:27;3.45;;;2.10;;
65187;SDS011;51775;51.148;6.950;2023-02-22T13:54:57;2.90;;;1.90;;
65187;SDS011;51775;51.148;6.950;2023-02-22T14:02:59;3.38;;;1.90;;
65187;SDS011;51775;51.148;6.950;2023-02-22T14:07:59;2.60;;;1.70;;
65187;SDS011;51775;51.148;6.950;2023-02-22T14:10:34;3.17;;;2.03;;
65187;SDS011;51775;51.148;6.950;2023-02-22T14:13:05;3.10;;;1.70;;
65187;SDS011;51775;51.148;6.950;2023-02-22T14:15:31;3.92;;;2.20;;
65187;SDS011;51775;51.148;6.950;2023-02-22T14:17:57;3.58;;;1.90;;
65187;SDS011;51775;51.148;6.950;2023-02-22T14:20:29;2.53;;;1.67;;
65187;SDS011;51775;51.148;6.950;2023-02-22T14:26:08;3.20;;;1.70;;
65187;SDS011;51775;51.148;6.950;2023-02-22T14:34:13;3.28;;;1.90;;
65187;SDS011;51775;51.148;6.950;2023-02-22T14:37:02;3.33;;;1.90;;
65187;SDS011;51775;51.148;6.950;2023-02-22T14:40:05;2.97;;;2.00;;
65187;SDS011;51775;51.148;6.950;2023-02-22T14:42:27;3.35;;;2.00;;
65187;SDS011;51775;51.148;6.950;2023-02-22T14:45:02;3.00;;;1.70;;
65187;SDS011;51775;51.148;6.950;2023-02-22T14:47:40;3.63;;;2.05;;
65187;SDS011;51775;51.148;6.950;2023-02-22T14:50:17;2.80;;;1.77;;
65187;SDS011;51775;51.148;6.950;2023-02-22T14:52:46;3.20;;;2.00;;
65187;SDS011;51775;51.148;6.950;2023-02-22T14:55:20;3.25;;;2.00;;
65187;SDS011;51775;51.148;6.950;2023-02-22T14:57:52;4.07;;;1.95;;
65187;SDS011;51775;51.148;6.950;2023-02-22T15:00:26;3.30;;;1.80;;
65187;SDS011;51775;51.148;6.950;2023-02-22T15:03:01;3.33;;;1.88;;
65187;SDS011;51775;51.148;6.950;2023-02-22T15:05:27;3.50;;;2.03;;
65187;SDS011;51775;51.148;6.950;2023-02-22T15:07:59;2.70;;;1.88;;
65187;SDS011;51775;51.148;6.950;2023-02-22T15:10:30;3.90;;;1.90;;
65187;SDS011;51775;51.148;6.950;2023-02-22T15:13:05;2.75;;;1.80;;
65187;SDS011;51775;51.148;6.950;2023-02-22T15:15:41;2.78;;;1.88;;
65187;SDS011;51775;51.148;6.950;2023-02-22T15:18:11;3.45;;;1.90;;
65187;SDS011;51775;51.148;6.950;2023-02-22T15:21:06;2.67;;;1.92;;
65187;SDS011;51775;51.148;6.950;2023-02-22T15:23:48;3.25;;;2.00;;
65187;SDS011;51775;51.148;6.950;2023-02-22T15:26:17;3.22;;;1.98;;
65187;SDS011;51775;51.148;6.950;2023-02-22T15:28:46;3.20;;;1.98;;
65187;SDS011;51775;51.148;6.950;2023-02-22T15:31:20;3.17;;;1.92;;
65187;SDS011;51775;51.148;6.950;2023-02-22T15:33:46;2.72;;;1.90;;
65187;SDS011;51775;51.148;6.950;2023-02-22T15:36:13;2.65;;;1.85;;
65187;SDS011;51775;51.148;6.950;2023-02-22T15:38:40;2.78;;;1.88;;
65187;SDS011;51775;51.148;6.950;2023-02-22T15:41:18;4.18;;;2.10;;
65187;SDS011;51775;51.148;6.950;2023-02-22T15:43:55;2.67;;;1.65;;
65187;SDS011;51775;51.148;6.950;2023-02-22T15:46:22;3.30;;;1.80;;
65187;SDS011;51775;51.148;6.950;2023-02-22T15:49:02;3.22;;;2.00;;
65187;SDS011;51775;51.148;6.950;2023-02-22T15:51:32;3.55;;;2.00;;
65187;SDS011;51775;51.148;6.950;2023-02-22T15:53:59;3.38;;;1.95;;
65187;SDS011;51775;51.148;6.950;2023-02-22T15:56:28;3.08;;;2.13;;
65187;SDS011;51775;51.148;6.950;2023-02-22T15:58:59;3.20;;;1.90;;
65187;SDS011;51775;51.148;6.950;2023-02-22T16:01:27;3.40;;;2.20;;
65187;SDS011;51775;51.148;6.950;2023-02-22T16:03:55;2.85;;;1.88;;
65187;SDS011;51775;51.148;6.950;2023-02-22T16:09:21;2.65;;;2.03;;
65187;SDS011;51775;51.148;6.950;2023-02-22T16:11:46;3.78;;;2.20;;
65187;SDS011;51775;51.148;6.950;2023-02-22T16:14:26;3.10;;;2.00;;
65187;SDS011;51775;51.148;6.950;2023-02-22T16:19:38;3.67;;;2.00;;
65187;SDS011;51775;51.148;6.950;2023-02-22T16:22:05;3.65;;;2.17;;
65187;SDS011;51775;51.148;6.950;2023-02-22T16:24:32;3.28;;;2.10;;
65187;SDS011;51775;51.148;6.950;2023-02-22T16:29:36;3.63;;;2.10;;
65187;SDS011;51775;51.148;6.950;2023-02-22T16:32:02;3.00;;;2.10;;
65187;SDS011;51775;51.148;6.950;2023-02-22T16:34:27;3.10;;;2.13;;
65187;SDS011;51775;51.148;6.950;2023-02-22T16:36:52;3.50;;;1.80;;
65187;SDS011;51775;51.148;6.950;2023-02-22T16:41:50;3.22;;;2.10;;
65187;SDS011;51775;51.148;6.950;2023-02-22T16:44:15;3.10;;;2.00;;
65187;SDS011;51775;51.148;6.950;2023-02-22T16:46:41;2.78;;;1.92;;
65187;SDS011;51775;51.148;6.950;2023-02-22T16:49:11;3.20;;;2.20;;
65187;SDS011;51775;51.148;6.950;2023-02-22T16:51:46;3.30;;;2.05;;
65187;SDS011;51775;51.148;6.950;2023-02-22T16:54:18;2.85;;;2.13;;
65187;SDS011;51775;51.148;6.950;2023-02-22T16:57:09;2.90;;;2.00;;
65187;SDS011;51775;51.148;6.950;2023-02-22T16:59:40;5.22;;;2.05;;
65187;SDS011;51775;51.148;6.950;2023-02-22T17:02:06;3.17;;;2.20;;
65187;SDS011;51775;51.148;6.950;2023-02-22T17:04:37;2.63;;;2.00;;
65187;SDS011;51775;51.148;6.950;2023-02-22T17:07:02;3.28;;;2.10;;
65187;SDS011;51775;51.148;6.950;2023-02-22T17:09:27;3.05;;;2.03;;
65187;SDS011;51775;51.148;6.950;2023-02-22T17:11:52;3.23;;;2.23;;
65187;SDS011;51775;51.148;6.950;2023-02-22T17:14:19;3.20;;;2.00;;
65187;SDS011;51775;51.148;6.950;2023-02-22T17:16:46;4.25;;;2.20;;
65187;SDS011;51775;51.148;6.950;2023-02-22T17:19:15;3.53;;;2.30;;
65187;SDS011;51775;51.148;6.950;2023-02-22T17:21:47;3.53;;;2.40;;
65187;SDS011;51775;51.148;6.950;2023-02-22T17:24:13;3.42;;;2.42;;
65187;SDS011;51775;51.148;6.950;2023-02-22T17:26:45;3.72;;;2.33;;
65187;SDS011;51775;51.148;6.950;2023-02-22T17:29:10;3.47;;;2.40;;
65187;SDS011;51775;51.148;6.950;2023-02-22T17:31:35;3.40;;;2.40;;
65187;SDS011;51775;51.148;6.950;2023-02-22T17:34:01;3.80;;;2.50;;
65187;SDS011;51775;51.148;6.950;2023-02-22T17:36:29;5.15;;;3.00;;
65187;SDS011;51775;51.148;6.950;2023-02-22T17:38:55;3.55;;;2.67;;